Antoine Wiels

Antoine Wiels

Statistiques 2026

  • Courses courues : 91
  • Nb de victoires : 24
  • Nb de places : 51
  • Écart gagnant : -
  • Réussite à la gagne : 26%
  • Réussite à la place : 56%
Musique : 1a 3a 0a 3a 0a 0a 3a 5a Da Da 7a Da 3a 7a Da 1a 8a 1a
DateRangCatégorieAlloc.Dist.HippodromeChevalRed. KmSpé.
15/12/25 3 Trot 20 000€ 2 200m Le Mans Mistigris du Lupin 1'15"5 Attelé
12/12/25 2 Trot 30 000€ 2 725m Graignes Histoire du Lupin 1'14"2 Attelé
12/12/25 5 Trot 20 000€ 2 725m Graignes Kalsie des Baux 1'16"1 Attelé
12/12/25 1 Trot 17 500€ 2 700m Graignes Milord du Cherisay 1'16"3 Attelé
12/12/25 2 Trot 17 500€ 2 700m Graignes Magie du Lupin 1'17"3 Attelé
08/12/25 2 Trot 26 000€ 3 150m Angers Jadou du Lupin 1'13"6 Attelé
08/12/25 0 Trot 20 000€ 2 350m Angers Korrigan Sibey Attelé
08/12/25 0 Trot 17 500€ 2 350m Angers Louisiane Paris Attelé
07/12/25 4 Trot 15 000€ 2 850m Laval Mome du Lupin 1'17"2 Attelé
07/12/25 6 Trot 12 500€ 2 050m Laval Nice Atout 1'16"9 Attelé
05/12/25 3 Trot 23 000€ 3 150m Saint Brieuc Joueur du Lupin 1'16"8 Attelé
05/12/25 1 Trot 17 500€ 3 175m Saint Brieuc Louve de Chanlecy 1'16"8 Attelé
05/12/25 2 Trot 19 500€ 2 575m Saint Brieuc Miden de Fontaine 1'17"2 Attelé
04/12/25 6 Trot 40 000€ 2 850m Vincennes Lestancia Bella 1'14"0 Attelé
04/12/25 3 Trot 90 000€ 2 100m Vincennes Greco Bello 1'09"7 Attelé lire

Longtemps sur une troisième ligne, a conclu de bonne façon.

01/12/25 1 Trot 17 500€ 3 000m Nantes Kelrapide du Lupin 1'15"2 Attelé
01/12/25 5 Trot 17 000€ 3 000m Nantes Look de Ginai 1'15"8 Attelé
01/12/25 1 Trot 17 500€ 3 025m Nantes Joella Bella 1'14"0 Attelé
01/12/25 D Trot 15 000€ 2 275m Nantes Maflora Bella Attelé
30/11/25 0 Trot 150 000€ 2 850m Vincennes Ibiza Bella 1'12"6 Attelé lire

Après avoir attendu au sein du peloton, a conclu convenablement.

24/11/25 3 Trot 56 000€ 2 700m Vincennes Julia Bella 1'13"4 Attelé lire

Une des animatrices, n'a perdu le premier accessit que sur le fil.

16/11/25 1 Trot 13 500€ 2 800m Chartres Magie du Lupin 1'18"9 Attelé
16/11/25 1 Trot 13 500€ 2 800m Chartres Mistigris du Lupin 1'18"0 Attelé
15/11/25 2 Trot 35 000€ 2 875m Laval Lyriko Bello 1'12"7 Attelé
15/11/25 2 Trot 30 000€ 2 850m Laval Jutonniere 1'13"5 Attelé lire

Une des animatrices, a bien tenu sa partie jusqu'à la fin.

15/11/25 D Trot 40 000€ 2 850m Laval Kyria Bella Attelé
15/11/25 3 Trot 15 500€ 2 450m Caen Myrtille du Lupin 1'15"6 Attelé
12/11/25 2 Trot 21 000€ 2 550m Bordeaux Le Bouscat Kheops d'hameline 1'13"8 Attelé
12/11/25 1 Trot 35 000€ 2 650m Bordeaux Le Bouscat Jadou du Lupin 1'16"1 Attelé lire

Principal animateur, a su se montrer le plus fort dans la phase finale.

11/11/25 1 Mixte 25 000€ 3 150m Angers Jerenal d'hameline 1'14"3 Attelé
11/11/25 D Mixte 13 500€ 3 125m Angers Maestria du Plain Attelé
09/11/25 2 Trot 62 000€ 2 650m La Rochelle Ino du Lupin 1'11"1 Attelé
09/11/25 1 Trot 30 000€ 2 500m La Rochelle Histoire du Lupin 1'13"1 Attelé
09/11/25 8 Trot 26 000€ 2 650m La Rochelle Kassandra Wind 1'14"9 Attelé
09/11/25 1 Trot 26 000€ 2 625m La Rochelle Malicia Bella 1'15"4 Attelé
09/11/25 1 Trot 20 000€ 2 650m La Rochelle Lestancia Bella 1'13"8 Attelé
08/11/25 D Trot 72 000€ 2 700m Vincennes Ibiza Bella Attelé lire

Longtemps à l'arrière-garde, a rejoint les animateurs dans le dernier tournant puis luttait pour le succès quand elle s'est montrée fautive près du but.

07/11/25 1 Trot 35 000€ 2 850m Laval Ilmat des Keches 1'13"5 Attelé
07/11/25 A Trot 21 000€ 2 850m Laval Mousko du Lupin Attelé
05/11/25 5 Trot 30 000€ 3 025m Nantes L'Athenia Bella 1'14"9 Attelé lire

Après avoir figuré au sein du peloton, a fait illusion à la sortie du dernier tournant avant de faiblir.

05/11/25 3 Trot 27 000€ 3 000m Nantes Joueur du Lupin 1'15"4 Attelé
05/11/25 2 Trot 35 000€ 3 025m Nantes Kyria Bella 1'13"0 Attelé
05/11/25 5 Trot 90 000€ 3 025m Nantes Greco Bello 1'11"9 Attelé lire

Après avoir figuré, a conclu fort honorablement.

03/11/25 4 Trot 20 000€ 2 850m Chartres Jutonniere 1'15"7 Attelé
02/11/25 D Trot 17 000€ 2 700m Le Mont Saint Michel Kaviase Attelé
02/11/25 1 Trot 15 000€ 2 675m Le Mont Saint Michel Miden de Fontaine 1'17"1 Attelé
01/11/25 2 Trot 31 000€ 2 850m Laval Kelcanto Bello 1'13"8 Attelé
01/11/25 1 Trot 30 000€ 2 875m Laval Librio Bello 1'13"7 Attelé lire

Très vite à la pointe du combat, s'est montré facilement le plus fort pour finir.

01/11/25 4 Trot 30 000€ 2 850m Laval Mambo du Taillis 1'15"5 Attelé
31/10/25 2 Trot 17 000€ 2 725m Pornichet La Baule King du Pressoir 1'16"7 Attelé